createdAt,value
2019-05-29T00:00:42.967Z,0.00
2019-05-29T00:01:42.967Z,0.00
2019-05-29T00:02:42.987Z,0.00
2019-05-29T00:03:42.956Z,0.00
2019-05-29T00:04:42.955Z,0.00
2019-05-29T00:05:42.955Z,0.00
2019-05-29T00:06:42.967Z,0.00
2019-05-29T00:07:42.957Z,0.00
2019-05-29T00:08:42.979Z,0.00
2019-05-29T00:09:42.948Z,0.00
2019-05-29T00:10:42.951Z,0.00
2019-05-29T00:11:42.948Z,0.00
2019-05-29T00:12:42.945Z,0.00
2019-05-29T00:13:42.971Z,0.00
2019-05-29T00:14:42.945Z,0.00
2019-05-29T00:15:42.941Z,0.00
2019-05-29T00:16:42.941Z,0.00
2019-05-29T00:17:42.937Z,0.00
2019-05-29T00:18:42.969Z,0.00
2019-05-29T00:19:42.929Z,0.00
2019-05-29T00:20:42.935Z,0.00
2019-05-29T00:21:42.935Z,0.00
2019-05-29T00:22:42.930Z,0.00
2019-05-29T00:23:42.954Z,0.00
2019-05-29T00:24:42.928Z,0.00
2019-05-29T00:25:42.925Z,0.00
2019-05-29T00:26:42.928Z,0.00
2019-05-29T00:27:42.927Z,0.00
2019-05-29T00:28:42.948Z,0.00
2019-05-29T00:29:42.922Z,0.00
2019-05-29T00:30:42.925Z,0.00
2019-05-29T00:31:42.919Z,0.00
2019-05-29T00:32:42.916Z,0.00
2019-05-29T00:33:42.949Z,0.00
2019-05-29T00:34:42.907Z,0.00
2019-05-29T00:35:42.907Z,0.00
2019-05-29T00:36:42.915Z,0.00
2019-05-29T00:37:42.908Z,0.00
2019-05-29T00:38:42.936Z,0.00
2019-05-29T00:39:42.921Z,0.00
2019-05-29T00:40:42.900Z,0.00
2019-05-29T00:41:42.903Z,0.00
2019-05-29T00:42:42.905Z,0.00
2019-05-29T00:43:42.936Z,0.00
2019-05-29T00:44:42.897Z,0.00
2019-05-29T00:45:42.903Z,0.00
2019-05-29T00:46:42.897Z,0.00
2019-05-29T00:47:42.893Z,0.00
2019-05-29T00:48:42.923Z,0.00
2019-05-29T00:49:42.888Z,0.00
2019-05-29T01:52:28.015Z,0.00
2019-05-29T01:52:48.786Z,0.00
2019-05-29T01:53:48.815Z,0.00
2019-05-29T01:54:48.783Z,0.00
2019-05-29T01:55:48.779Z,0.00
2019-05-29T01:56:48.808Z,0.00
2019-05-29T01:57:48.780Z,0.00
2019-05-29T01:58:48.780Z,0.00
2019-05-29T01:59:48.808Z,0.00
2019-05-29T02:00:48.773Z,0.00
2019-05-29T02:01:48.771Z,0.00
2019-05-29T02:02:48.776Z,0.00
2019-05-29T02:03:48.799Z,0.00
2019-05-29T02:04:48.765Z,0.00
2019-05-29T02:05:48.764Z,0.00
2019-05-29T02:06:48.764Z,0.00
2019-05-29T02:07:48.761Z,0.00
2019-05-29T02:08:48.799Z,0.00
2019-05-29T02:09:48.761Z,0.00
2019-05-29T02:10:48.755Z,0.00
2019-05-29T02:11:48.854Z,0.00
2019-05-29T02:12:48.749Z,0.00
2019-05-29T02:13:48.773Z,0.00
2019-05-29T02:14:48.753Z,0.00
2019-05-29T02:15:48.746Z,0.00
2019-05-29T02:16:48.740Z,0.00
2019-05-29T02:17:48.742Z,0.00
2019-05-29T02:18:48.778Z,0.00
2019-05-29T02:19:48.739Z,0.00
2019-05-29T02:20:48.735Z,0.00
2019-05-29T02:21:48.734Z,0.00
2019-05-29T02:22:48.758Z,0.00
2019-05-29T02:23:48.734Z,0.00
2019-05-29T02:24:48.751Z,0.00
2019-05-29T02:25:48.733Z,0.00
2019-05-29T02:26:48.727Z,0.00
2019-05-29T02:27:48.730Z,0.00
2019-05-29T02:28:48.743Z,0.00
2019-05-29T02:29:48.722Z,0.00
2019-05-29T02:30:48.716Z,0.00
2019-05-29T02:31:48.793Z,0.00
2019-05-29T02:32:48.715Z,0.00
2019-05-29T02:33:48.737Z,0.00
2019-05-29T02:34:48.707Z,0.00
2019-05-29T02:35:48.705Z,0.00
2019-05-29T02:36:48.705Z,0.00
2019-05-29T02:37:48.701Z,0.00
2019-05-29T02:38:48.728Z,0.00
2019-05-29T02:39:48.698Z,0.00
2019-05-29T02:40:48.694Z,0.00
2019-05-29T02:41:48.694Z,0.00
2019-05-29T02:42:48.717Z,4.00
2019-05-29T02:43:48.682Z,4.00
2019-05-29T02:44:48.683Z,4.00
2019-05-29T02:45:54.440Z,4.00
2019-05-29T02:46:48.682Z,4.00
2019-05-29T02:47:48.709Z,0.00
2019-05-29T02:48:48.673Z,4.00
2019-05-29T02:49:48.687Z,4.00
2019-05-29T02:50:48.669Z,4.00
2019-05-29T02:51:48.723Z,4.00
2019-05-29T02:52:48.697Z,8.00
2019-05-29T02:53:48.663Z,8.00
2019-05-29T02:54:48.663Z,4.00
2019-05-29T02:55:48.672Z,8.00
2019-05-29T02:56:48.663Z,12.00
2019-05-29T02:57:48.693Z,8.00
2019-05-29T02:58:48.661Z,12.00
2019-05-29T02:59:48.653Z,12.00
2019-05-29T03:00:48.648Z,12.00
2019-05-29T03:01:48.644Z,12.00
2019-05-29T03:02:48.697Z,16.00
2019-05-29T03:03:48.647Z,20.00
2019-05-29T03:04:48.643Z,24.00
2019-05-29T03:05:48.637Z,24.00
2019-05-29T03:06:48.639Z,32.00
2019-05-29T03:07:48.658Z,32.00
2019-05-29T03:08:48.631Z,40.00
2019-05-29T03:09:48.623Z,44.00
2019-05-29T03:10:48.622Z,52.00
2019-05-29T03:11:48.623Z,56.00
2019-05-29T03:12:48.643Z,64.00
2019-05-29T03:13:48.625Z,72.00
2019-05-29T03:14:48.616Z,80.00
2019-05-29T03:16:05.753Z,84.00
2019-05-29T03:16:48.610Z,92.00
2019-05-29T03:17:48.642Z,100.00
2019-05-29T03:18:48.608Z,112.00
2019-05-29T03:19:48.602Z,124.00
2019-05-29T03:20:48.598Z,132.00
2019-05-29T03:21:48.601Z,144.00
2019-05-29T03:22:48.600Z,156.00
2019-05-29T03:23:48.623Z,168.00
2019-05-29T03:24:48.604Z,184.00
2019-05-29T03:25:48.583Z,196.00
2019-05-29T03:26:48.594Z,208.00
2019-05-29T03:27:48.582Z,224.00
2019-05-29T03:28:48.608Z,236.00
2019-05-29T03:29:48.574Z,252.00
2019-05-29T03:30:48.583Z,272.00
2019-05-29T03:31:49.013Z,288.00
2019-05-29T03:32:49.074Z,304.00
2019-05-29T03:33:50.648Z,328.00
2019-05-29T03:34:48.636Z,340.00
2019-05-29T03:35:48.914Z,344.00
2019-05-29T03:36:49.217Z,360.00
2019-05-29T03:37:48.562Z,372.00
2019-05-29T03:38:48.590Z,384.00
2019-05-29T03:39:48.569Z,404.00
2019-05-29T03:40:48.559Z,416.00
2019-05-29T03:41:48.551Z,408.00
2019-05-29T03:42:48.549Z,444.00
2019-05-29T03:43:48.577Z,460.00
2019-05-29T03:44:48.542Z,476.00
2019-05-29T03:45:48.541Z,520.00
2019-05-29T03:46:48.540Z,544.00
2019-05-29T03:47:48.539Z,564.00
2019-05-29T03:48:48.562Z,544.00
2019-05-29T03:49:48.535Z,568.00
2019-05-29T03:50:48.537Z,580.00
2019-05-29T03:51:48.537Z,604.00
2019-05-29T03:52:48.523Z,644.00
2019-05-29T03:53:48.567Z,692.00
2019-05-29T03:54:48.520Z,728.00
2019-05-29T03:55:48.519Z,748.00
2019-05-29T03:56:48.511Z,724.00
2019-05-29T03:57:48.514Z,752.00
2019-05-29T03:58:48.547Z,772.00
2019-05-29T03:59:48.510Z,788.00
2019-05-29T04:00:49.091Z,804.00
2019-05-29T04:01:48.512Z,820.00
2019-05-29T04:02:48.502Z,844.00
2019-05-29T04:03:48.528Z,856.00
2019-05-29T04:04:48.495Z,856.00
2019-05-29T04:05:48.501Z,848.00
2019-05-29T04:06:48.489Z,816.00
2019-05-29T04:07:48.495Z,788.00
2019-05-29T04:08:48.524Z,764.00
2019-05-29T04:09:48.490Z,760.00
2019-05-29T04:10:48.487Z,756.00
2019-05-29T04:11:48.485Z,728.00
2019-05-29T04:12:48.495Z,696.00
2019-05-29T04:13:48.506Z,728.00
2019-05-29T04:14:48.487Z,736.00
2019-05-29T04:15:48.472Z,732.00
2019-05-29T04:16:58.957Z,732.00
2019-05-29T04:17:48.477Z,772.00
2019-05-29T04:18:48.504Z,816.00
2019-05-29T04:19:48.466Z,840.00
2019-05-29T04:20:48.461Z,868.00
2019-05-29T04:21:48.466Z,920.00
2019-05-29T04:22:48.461Z,1016.00
2019-05-29T04:23:48.483Z,992.00
2019-05-29T04:24:48.451Z,988.00
2019-05-29T04:25:48.458Z,1104.00
2019-05-29T04:26:48.450Z,1184.00
2019-05-29T04:27:48.450Z,1112.00
2019-05-29T04:28:48.470Z,1008.00
2019-05-29T04:29:48.445Z,1096.00
2019-05-29T04:30:48.440Z,1064.00
2019-05-29T04:31:48.442Z,1100.00
2019-05-29T04:32:48.434Z,1080.00
2019-05-29T04:33:48.466Z,1104.00
2019-05-29T04:34:48.441Z,1120.00
2019-05-29T04:35:48.432Z,976.00
2019-05-29T04:36:48.429Z,944.00
2019-05-29T04:37:48.430Z,1044.00
2019-05-29T04:38:48.427Z,1068.00
2019-05-29T04:39:48.446Z,1088.00
2019-05-29T04:40:48.411Z,1160.00
2019-05-29T04:41:48.416Z,1148.00
2019-05-29T04:42:48.415Z,1140.00
2019-05-29T04:43:48.412Z,1220.00
2019-05-29T04:44:48.439Z,1264.00
2019-05-29T04:45:48.408Z,1364.00
2019-05-29T04:46:48.414Z,1536.00
2019-05-29T04:47:48.404Z,1632.00
2019-05-29T04:48:48.400Z,1608.00
2019-05-29T04:49:48.431Z,1496.00
2019-05-29T04:50:48.400Z,1424.00
2019-05-29T04:51:48.395Z,1376.00
2019-05-29T04:52:48.389Z,1300.00
2019-05-29T04:53:48.385Z,1452.00
2019-05-29T04:54:48.414Z,1592.00
2019-05-29T04:55:48.385Z,1696.00
2019-05-29T04:56:48.378Z,1692.00
2019-05-29T04:57:50.783Z,1584.00
2019-05-29T04:58:48.376Z,1520.00
2019-05-29T04:59:48.413Z,1488.00
2019-05-29T05:00:58.668Z,1560.00
2019-05-29T05:01:48.382Z,1660.00
2019-05-29T05:02:48.371Z,1752.00
2019-05-29T05:03:48.366Z,1976.00
2019-05-29T05:04:48.391Z,2224.00
2019-05-29T05:05:48.363Z,2368.00
2019-05-29T05:06:48.362Z,2604.00
2019-05-29T05:07:48.359Z,2804.00
2019-05-29T05:08:48.355Z,2944.00
2019-05-29T05:09:48.386Z,3104.00
2019-05-29T05:10:48.355Z,3240.00
2019-05-29T05:11:48.383Z,3392.00
2019-05-29T05:12:48.384Z,3496.00
2019-05-29T05:13:48.343Z,3512.00
2019-05-29T05:14:48.367Z,3600.00
2019-05-29T05:15:48.342Z,3772.00
2019-05-29T05:16:48.335Z,3848.00
2019-05-29T05:17:48.339Z,3892.00
2019-05-29T05:18:48.338Z,3888.00
2019-05-29T05:19:48.361Z,3892.00
2019-05-29T05:20:48.335Z,3896.00
2019-05-29T05:21:48.337Z,3876.00
2019-05-29T05:22:48.330Z,3840.00
2019-05-29T05:23:48.335Z,3756.00
2019-05-29T05:24:48.352Z,3676.00
2019-05-29T05:25:48.312Z,3804.00
2019-05-29T05:26:48.315Z,3976.00
2019-05-29T05:27:48.318Z,4284.00
2019-05-29T05:28:48.346Z,4616.00
2019-05-29T05:29:48.348Z,5020.00
2019-05-29T05:30:48.340Z,5108.00
2019-05-29T05:31:48.305Z,4948.00
2019-05-29T05:32:48.306Z,4932.00
2019-05-29T05:33:48.311Z,4972.00
2019-05-29T05:34:48.294Z,5116.00
2019-05-29T05:35:48.343Z,5404.00
2019-05-29T05:36:48.296Z,5704.00
2019-05-29T05:37:48.290Z,6172.00
2019-05-29T05:38:48.293Z,6648.00
2019-05-29T05:39:48.304Z,6644.00
2019-05-29T05:40:48.314Z,6840.00
2019-05-29T05:41:48.284Z,7228.00
2019-05-29T05:42:48.282Z,7312.00
2019-05-29T05:43:48.283Z,6964.00
2019-05-29T05:44:48.280Z,6676.00
2019-05-29T05:45:48.313Z,6836.00
2019-05-29T05:46:48.272Z,7228.00
2019-05-29T05:47:56.863Z,7576.00
2019-05-29T05:48:48.276Z,7596.00
2019-05-29T05:49:48.273Z,7236.00
2019-05-29T05:50:48.295Z,6880.00
2019-05-29T05:51:48.375Z,6608.00
2019-05-29T05:52:48.262Z,6448.00
2019-05-29T05:53:48.270Z,5740.00
2019-05-29T05:54:48.254Z,5308.00
2019-05-29T05:55:48.298Z,5312.00
2019-05-29T05:56:48.256Z,5172.00
2019-05-29T05:57:48.260Z,5360.00
2019-05-29T05:58:48.256Z,5464.00
2019-05-29T05:59:48.251Z,5708.00
2019-05-29T06:00:48.280Z,6112.00
2019-05-29T06:01:48.248Z,6664.00
2019-05-29T06:02:51.982Z,7308.00
2019-05-29T06:03:48.246Z,7424.00
2019-05-29T06:04:48.299Z,6920.00
2019-05-29T06:05:48.276Z,5528.00
2019-05-29T06:06:48.244Z,4068.00
2019-05-29T06:07:48.268Z,2828.00
2019-05-29T06:08:48.234Z,2816.00
2019-05-29T06:09:48.241Z,3160.00
2019-05-29T06:10:51.108Z,2412.00
2019-05-29T06:11:48.239Z,2520.00
2019-05-29T06:12:48.233Z,2812.00
2019-05-29T06:13:48.229Z,3220.00
2019-05-29T06:14:48.227Z,3432.00
2019-05-29T06:15:48.261Z,3612.00
2019-05-29T06:16:48.228Z,4072.00
2019-05-29T06:18:10.253Z,4200.00
2019-05-29T06:18:48.224Z,4324.00
2019-05-29T06:19:48.231Z,4376.00
2019-05-29T06:20:48.242Z,4660.00
2019-05-29T06:21:48.210Z,4632.00
2019-05-29T06:22:48.219Z,5064.00
2019-05-29T06:23:48.214Z,5188.00
2019-05-29T06:24:48.237Z,5720.00
2019-05-29T06:25:48.237Z,7048.00
2019-05-29T06:26:48.209Z,8388.00
2019-05-29T06:27:48.202Z,8024.00
2019-05-29T06:28:48.207Z,6928.00
2019-05-29T06:29:48.199Z,8016.00
2019-05-29T06:30:48.196Z,7940.00
2019-05-29T06:31:48.396Z,7340.00
2019-05-29T06:32:48.192Z,7440.00
2019-05-29T06:33:48.197Z,6672.00
2019-05-29T06:34:48.195Z,5512.00
2019-05-29T06:35:48.187Z,5560.00
2019-05-29T06:36:48.405Z,6016.00
2019-05-29T06:37:48.180Z,6636.00
2019-05-29T06:38:48.181Z,8476.00
2019-05-29T06:39:48.182Z,10896.00
2019-05-29T06:40:48.187Z,10788.00
2019-05-29T06:41:48.208Z,11972.00
2019-05-29T06:42:48.174Z,12528.00
2019-05-29T06:43:48.175Z,11064.00
2019-05-29T06:44:49.872Z,8988.00
2019-05-29T06:45:48.165Z,7444.00
2019-05-29T06:46:48.194Z,8164.00
2019-05-29T06:47:48.161Z,8964.00
2019-05-29T06:48:58.317Z,8496.00
2019-05-29T06:49:48.164Z,9492.00
2019-05-29T06:50:48.163Z,11312.00
2019-05-29T06:51:48.179Z,12376.00
2019-05-29T06:52:48.161Z,13724.00
2019-05-29T06:53:48.384Z,14644.00
2019-05-29T06:54:48.276Z,15188.00
2019-05-29T06:55:54.288Z,15768.00
2019-05-29T06:56:48.179Z,15512.00
2019-05-29T06:57:48.387Z,14368.00
2019-05-29T06:58:48.510Z,11068.00
2019-05-29T06:59:48.944Z,9856.00
2019-05-29T07:00:48.149Z,11320.00
2019-05-29T07:01:48.163Z,11752.00
2019-05-29T07:02:48.138Z,9832.00
2019-05-29T07:03:48.303Z,8028.00
2019-05-29T07:04:48.131Z,9316.00
2019-05-29T07:05:51.259Z,8804.00
2019-05-29T07:06:48.158Z,9336.00
2019-05-29T07:07:48.583Z,9680.00
2019-05-29T07:08:50.180Z,9156.00
2019-05-29T07:09:48.457Z,9244.00
2019-05-29T07:10:48.515Z,9568.00
2019-05-29T07:11:48.156Z,9552.00
2019-05-29T07:12:48.132Z,9220.00
2019-05-29T07:13:50.298Z,8368.00
2019-05-29T07:14:48.285Z,7452.00
2019-05-29T07:15:48.116Z,8140.00
2019-05-29T07:16:55.523Z,8924.00
2019-05-29T07:17:48.125Z,10276.00
2019-05-29T07:19:23.306Z,10032.00
2019-05-29T07:19:59.055Z,9980.00
2019-05-29T07:20:48.108Z,8976.00
2019-05-29T07:21:48.143Z,9068.00
2019-05-29T07:22:48.101Z,9716.00
2019-05-29T07:23:48.837Z,9584.00
2019-05-29T07:24:48.109Z,9540.00
2019-05-29T07:25:48.103Z,9760.00
2019-05-29T07:26:48.127Z,10192.00
2019-05-29T07:27:48.097Z,11008.00
2019-05-29T07:29:06.618Z,11292.00
2019-05-29T07:29:48.100Z,12648.00
2019-05-29T07:30:57.667Z,14728.00
2019-05-29T07:31:48.122Z,13820.00
2019-05-29T07:32:56.697Z,14668.00
2019-05-29T07:33:48.090Z,16324.00
2019-05-29T07:35:02.281Z,19200.00
2019-05-29T07:35:48.082Z,20480.00
2019-05-29T07:36:48.277Z,21760.00
2019-05-29T07:37:48.191Z,25184.00
2019-05-29T07:39:02.325Z,26560.00
2019-05-29T07:39:48.085Z,27968.00
2019-05-29T07:40:49.840Z,30496.00
2019-05-29T07:41:48.107Z,32576.00
2019-05-29T07:42:55.137Z,34560.00
2019-05-29T07:43:48.183Z,38816.00
2019-05-29T07:44:48.214Z,37568.00
2019-05-29T07:45:48.268Z,34624.00
2019-05-29T07:46:48.843Z,37664.00
2019-05-29T07:47:48.553Z,42208.00
2019-05-29T07:48:50.079Z,41920.00
2019-05-29T07:49:49.031Z,41920.00
2019-05-29T07:50:48.470Z,35904.00
2019-05-29T07:51:48.839Z,36096.00
2019-05-29T07:52:49.192Z,37664.00
2019-05-29T07:53:48.768Z,36480.00
2019-05-29T07:54:48.205Z,37408.00
2019-05-29T07:55:48.984Z,39968.00
2019-05-29T07:56:48.661Z,42720.00
2019-05-29T07:57:48.976Z,38496.00
2019-05-29T07:59:01.036Z,47168.00
2019-05-29T07:59:48.845Z,39200.00
2019-05-29T08:01:09.690Z,40800.00
2019-05-29T08:01:49.182Z,36768.00
2019-05-29T08:02:49.392Z,32672.00
2019-05-29T08:03:49.510Z,28320.00
2019-05-29T08:04:49.707Z,31584.00
2019-05-29T08:05:51.518Z,33952.00
2019-05-29T08:06:52.677Z,32832.00
2019-05-29T08:07:49.575Z,38528.00
2019-05-29T08:08:49.426Z,42080.00
2019-05-29T08:09:48.098Z,44128.00
2019-05-29T08:10:48.101Z,47872.00
2019-05-29T08:11:48.105Z,40000.00
2019-05-29T08:12:53.155Z,39552.00
2019-05-29T08:13:48.106Z,34624.00
2019-05-29T08:14:48.106Z,37408.00
2019-05-29T08:16:00.958Z,40352.00
2019-05-29T08:16:48.178Z,35392.00
2019-05-29T08:17:48.271Z,41216.00
2019-05-29T08:18:49.685Z,44160.00
2019-05-29T08:20:05.394Z,46880.00
2019-05-29T08:20:48.195Z,37664.00
2019-05-29T08:21:48.502Z,37632.00
2019-05-29T08:22:48.551Z,35680.00
2019-05-29T08:23:48.571Z,31936.00
2019-05-29T08:24:49.370Z,30624.00
2019-05-29T08:25:48.135Z,29696.00
2019-05-29T08:26:48.920Z,33024.00
2019-05-29T08:27:48.905Z,38688.00
2019-05-29T08:28:48.953Z,41920.00
2019-05-29T08:29:48.813Z,39168.00
2019-05-29T08:30:52.509Z,44064.00
2019-05-29T08:31:48.964Z,30784.00
2019-05-29T08:32:49.210Z,42592.00
2019-05-29T08:33:48.967Z,34720.00
2019-05-29T08:34:49.083Z,40672.00
2019-05-29T08:35:55.688Z,40928.00
2019-05-29T08:37:00.841Z,34400.00
2019-05-29T08:37:49.159Z,33280.00
2019-05-29T08:38:49.079Z,34208.00
2019-05-29T08:39:49.455Z,28160.00
2019-05-29T08:40:49.426Z,28864.00
2019-05-29T08:42:20.661Z,32352.00
2019-05-29T08:42:49.312Z,44192.00
2019-05-29T08:43:48.424Z,53344.00
2019-05-29T08:44:48.195Z,43680.00
2019-05-29T08:45:48.205Z,33536.00
2019-05-29T08:47:06.349Z,28320.00
2019-05-29T08:47:48.209Z,29760.00
2019-05-29T08:48:48.289Z,32032.00
2019-05-29T08:49:51.048Z,40128.00
2019-05-29T08:50:48.222Z,35968.00
2019-05-29T08:51:48.225Z,30272.00
2019-05-29T08:52:48.229Z,30336.00
2019-05-29T08:53:48.766Z,40000.00
2019-05-29T08:54:48.241Z,60064.00
2019-05-29T08:55:48.690Z,69632.00
2019-05-29T08:56:48.414Z,73120.00
2019-05-29T08:57:48.460Z,45216.00
2019-05-29T08:58:48.456Z,42560.00
2019-05-29T08:59:48.441Z,40352.00
2019-05-29T09:00:51.978Z,39232.00
2019-05-29T09:01:50.450Z,42848.00
2019-05-29T09:02:49.283Z,35776.00
2019-05-29T09:03:48.875Z,31488.00
2019-05-29T09:04:49.804Z,30880.00
2019-05-29T09:06:06.099Z,36128.00
2019-05-29T09:06:49.190Z,51488.00
2019-05-29T09:07:49.787Z,47136.00
2019-05-29T09:08:49.909Z,32128.00
2019-05-29T09:09:49.112Z,33888.00
2019-05-29T09:10:49.400Z,29344.00
2019-05-29T09:11:50.142Z,24384.00
2019-05-29T09:12:57.075Z,20896.00
2019-05-29T09:13:48.361Z,19360.00
2019-05-29T09:14:48.396Z,19232.00
2019-05-29T09:15:48.354Z,19712.00
2019-05-29T09:16:48.337Z,18976.00
2019-05-29T09:17:48.345Z,18304.00
2019-05-29T09:18:48.390Z,19296.00
2019-05-29T09:19:48.398Z,22592.00
2019-05-29T09:21:01.185Z,27968.00
2019-05-29T09:21:48.400Z,35840.00
2019-05-29T09:22:48.368Z,39360.00
2019-05-29T09:23:48.399Z,33760.00
2019-05-29T09:24:48.377Z,32640.00
2019-05-29T09:25:48.379Z,35360.00
2019-05-29T09:26:48.389Z,32256.00
2019-05-29T09:27:48.403Z,30080.00
2019-05-29T09:28:48.423Z,30176.00
2019-05-29T09:29:50.281Z,28928.00
2019-05-29T09:30:48.559Z,27968.00
2019-05-29T09:31:48.412Z,26848.00
2019-05-29T09:32:51.946Z,25600.00
2019-05-29T09:33:48.453Z,25088.00
2019-05-29T09:34:48.419Z,25792.00
2019-05-29T09:35:48.444Z,28192.00
2019-05-29T09:36:48.577Z,31360.00
2019-05-29T09:37:48.428Z,35424.00
2019-05-29T09:38:48.511Z,37120.00
2019-05-29T09:39:48.434Z,33728.00
2019-05-29T09:40:48.439Z,27808.00
2019-05-29T09:41:50.859Z,24096.00
2019-05-29T09:42:49.415Z,21248.00
2019-05-29T09:43:59.362Z,18944.00
2019-05-29T09:44:50.887Z,17152.00
2019-05-29T09:45:53.334Z,15440.00
2019-05-29T09:46:52.848Z,14004.00
2019-05-29T09:47:49.591Z,12580.00
2019-05-29T09:48:50.107Z,11804.00
2019-05-29T09:49:55.783Z,12024.00
2019-05-29T09:50:50.829Z,13708.00
2019-05-29T09:51:49.857Z,17696.00
2019-05-29T09:52:50.882Z,22720.00
2019-05-29T09:53:59.907Z,29184.00
2019-05-29T09:54:49.318Z,36896.00
2019-05-29T09:55:49.896Z,47616.00
2019-05-29T09:56:49.174Z,60832.00
2019-05-29T09:57:50.408Z,68960.00
2019-05-29T09:58:53.615Z,66496.00
2019-05-29T09:59:49.605Z,73024.00
2019-05-29T10:01:07.289Z,92448.00
2019-05-29T10:01:49.923Z,94176.00
2019-05-29T10:02:50.436Z,96832.00
2019-05-29T10:03:49.876Z,70400.00
2019-05-29T10:04:49.340Z,70656.00
2019-05-29T10:05:51.308Z,100928.00
2019-05-29T10:06:51.337Z,83168.00
2019-05-29T10:07:49.808Z,102784.00
2019-05-29T10:08:51.274Z,85408.00
2019-05-29T10:09:50.334Z,78080.00
2019-05-29T10:10:50.349Z,60608.00
2019-05-29T10:11:51.400Z,73184.00
2019-05-29T10:12:51.400Z,67520.00
2019-05-29T10:13:50.360Z,66752.00
2019-05-29T10:14:53.642Z,58176.00
2019-05-29T10:15:51.371Z,45408.00
2019-05-29T10:16:50.437Z,38304.00
2019-05-29T10:17:50.360Z,32512.00
2019-05-29T10:18:49.348Z,27904.00
2019-05-29T10:19:52.355Z,24736.00
2019-05-29T10:20:52.358Z,22464.00
2019-05-29T10:21:51.790Z,21376.00
2019-05-29T10:22:49.368Z,21376.00
2019-05-29T10:23:49.134Z,22240.00
2019-05-29T10:24:49.816Z,24992.00
2019-05-29T10:25:50.356Z,28768.00
2019-05-29T10:26:49.829Z,32320.00
2019-05-29T10:27:50.832Z,36832.00
2019-05-29T10:29:51.706Z,49888.00
2019-05-29T10:30:50.174Z,61280.00
2019-05-29T10:31:51.379Z,61664.00
2019-05-29T10:32:50.125Z,64160.00
2019-05-29T10:33:52.321Z,71968.00
2019-05-29T10:34:50.839Z,71296.00
2019-05-29T10:35:53.515Z,75872.00
2019-05-29T10:36:52.905Z,70816.00
2019-05-29T10:37:50.734Z,66624.00
2019-05-29T10:38:50.597Z,66880.00
2019-05-29T10:39:49.346Z,68960.00
2019-05-29T10:41:00.456Z,65088.00
2019-05-29T10:41:51.335Z,59360.00
2019-05-29T10:42:49.112Z,48704.00
2019-05-29T10:43:53.260Z,32928.00
2019-05-29T10:44:53.246Z,32512.00
2019-05-29T10:45:51.944Z,34176.00
2019-05-29T10:46:52.028Z,43136.00
2019-05-29T10:47:49.928Z,36544.00
2019-05-29T10:48:55.934Z,47552.00
2019-05-29T10:49:49.765Z,100064.00
2019-05-29T10:50:52.173Z,94976.00
2019-05-29T10:52:05.752Z,104416.00
2019-05-29T10:52:52.303Z,108256.00
2019-05-29T10:53:52.268Z,106016.00
2019-05-29T10:54:52.442Z,107776.00
2019-05-29T10:55:52.596Z,110176.00
2019-05-29T10:56:50.700Z,48736.00
2019-05-29T10:57:50.734Z,39136.00
2019-05-29T10:58:56.165Z,37472.00
2019-05-29T10:59:50.841Z,41920.00
2019-05-29T11:00:53.249Z,94656.00
2019-05-29T11:01:49.245Z,106848.00
2019-05-29T11:02:50.153Z,97696.00
2019-05-29T11:03:49.365Z,48384.00
2019-05-29T11:04:53.247Z,53056.00
2019-05-29T11:05:49.792Z,56960.00
2019-05-29T11:06:50.274Z,37792.00
2019-05-29T11:07:49.724Z,121088.00
2019-05-29T11:08:50.223Z,128096.00
2019-05-29T11:09:56.135Z,121728.00
2019-05-29T11:10:49.945Z,121024.00
2019-05-29T11:11:53.277Z,70976.00
2019-05-29T11:12:50.691Z,37152.00
2019-05-29T11:13:50.554Z,119680.00
2019-05-29T11:14:50.727Z,112768.00
2019-05-29T11:15:50.833Z,116864.00
2019-05-29T11:16:53.413Z,111968.00
2019-05-29T11:17:49.601Z,112000.00
2019-05-29T11:18:51.228Z,125152.00
2019-05-29T11:19:49.868Z,109760.00
2019-05-29T11:20:49.454Z,41664.00
2019-05-29T11:21:51.877Z,28192.00
2019-05-29T11:22:51.658Z,24960.00
2019-05-29T11:23:51.844Z,52064.00
2019-05-29T11:24:54.439Z,119072.00
2019-05-29T11:25:52.087Z,124352.00
2019-05-29T11:26:54.588Z,125600.00
2019-05-29T11:27:50.923Z,113760.00
2019-05-29T11:28:50.404Z,120640.00
2019-05-29T11:29:55.128Z,129024.00
2019-05-29T11:30:53.284Z,116704.00
2019-05-29T11:31:53.320Z,32320.00
2019-05-29T11:32:52.702Z,35424.00
2019-05-29T11:33:52.895Z,116480.00
2019-05-29T11:34:53.773Z,114432.00
2019-05-29T11:36:03.319Z,101760.00
2019-05-29T11:36:50.363Z,114880.00
2019-05-29T11:37:50.421Z,114784.00
2019-05-29T11:38:52.835Z,121536.00
2019-05-29T11:39:50.374Z,124832.00
2019-05-29T11:41:05.376Z,121152.00
2019-05-29T11:41:50.617Z,118912.00
2019-05-29T11:42:52.653Z,122528.00
2019-05-29T11:43:50.642Z,121024.00
2019-05-29T11:44:50.933Z,120928.00
2019-05-29T11:45:51.177Z,128608.00
2019-05-29T11:46:50.317Z,129248.00
2019-05-29T11:47:54.001Z,121888.00
2019-05-29T11:48:53.072Z,132832.00
2019-05-29T11:49:49.533Z,133632.00
2019-05-29T11:50:52.120Z,129632.00
2019-05-29T11:51:51.599Z,123232.00
2019-05-29T11:52:50.329Z,126688.00
2019-05-29T11:53:51.528Z,55168.00
2019-05-29T11:54:56.132Z,140160.00
2019-05-29T11:55:52.394Z,137600.00
2019-05-29T11:56:53.531Z,134464.00
2019-05-29T11:57:51.714Z,139200.00
2019-05-29T11:58:52.898Z,127872.00
2019-05-29T11:59:51.738Z,105888.00
2019-05-29T12:01:01.265Z,133568.00
2019-05-29T12:01:52.546Z,129120.00
2019-05-29T12:02:51.273Z,73856.00
2019-05-29T12:04:13.559Z,65504.00
2019-05-29T12:04:52.990Z,139840.00
2019-05-29T12:05:51.154Z,136256.00
2019-05-29T12:06:53.198Z,47552.00
2019-05-29T12:07:51.580Z,130016.00
2019-05-29T12:08:53.641Z,117312.00
2019-05-29T12:09:51.361Z,109664.00
2019-05-29T12:10:49.826Z,120352.00
2019-05-29T12:11:51.883Z,53120.00
2019-05-29T12:12:51.322Z,51712.00
2019-05-29T12:13:51.644Z,138176.00
2019-05-29T12:15:00.366Z,108032.00
2019-05-29T12:15:51.561Z,141600.00
2019-05-29T12:16:51.728Z,31872.00
2019-05-29T12:17:49.848Z,49728.00
2019-05-29T12:18:51.497Z,31104.00
2019-05-29T12:19:51.795Z,99360.00
2019-05-29T12:20:52.360Z,127360.00
2019-05-29T12:21:52.237Z,123488.00
2019-05-29T12:23:13.230Z,129600.00
2019-05-29T12:23:52.362Z,128896.00
2019-05-29T12:24:54.496Z,124416.00
2019-05-29T12:25:59.887Z,131680.00
2019-05-29T12:26:54.467Z,117728.00
2019-05-29T12:27:55.257Z,40032.00
2019-05-29T12:28:53.459Z,49984.00
2019-05-29T12:29:50.842Z,34016.00
2019-05-29T12:30:50.417Z,30912.00
2019-05-29T12:31:52.832Z,30176.00
2019-05-29T12:32:52.640Z,30752.00
2019-05-29T12:33:52.793Z,34336.00
2019-05-29T12:34:55.709Z,36640.00
2019-05-29T12:35:50.925Z,36736.00
2019-05-29T12:36:50.860Z,144128.00
2019-05-29T12:37:51.404Z,142784.00
2019-05-29T12:38:53.520Z,135232.00
2019-05-29T12:39:53.186Z,140672.00
2019-05-29T12:40:53.321Z,118592.00
2019-05-29T12:41:53.205Z,137024.00
2019-05-29T12:42:53.411Z,132576.00
2019-05-29T12:43:50.149Z,134528.00
2019-05-29T12:44:57.614Z,132032.00
2019-05-29T12:45:51.181Z,136576.00
2019-05-29T12:46:53.475Z,135360.00
2019-05-29T12:47:53.815Z,134304.00
2019-05-29T12:48:51.857Z,137600.00
2019-05-29T12:49:53.698Z,142112.00
2019-05-29T12:50:51.855Z,145568.00
2019-05-29T12:51:51.875Z,142880.00
2019-05-29T12:52:51.907Z,131040.00
2019-05-29T12:53:51.917Z,74048.00
2019-05-29T12:54:53.855Z,35040.00
2019-05-29T12:55:58.496Z,30432.00
2019-05-29T12:56:51.514Z,28000.00
2019-05-29T12:57:51.916Z,26304.00
2019-05-29T12:58:54.063Z,25888.00
2019-05-29T12:59:55.863Z,29952.00
2019-05-29T13:00:51.954Z,142272.00
2019-05-29T13:01:51.145Z,40032.00
2019-05-29T13:02:51.883Z,135776.00
2019-05-29T13:03:51.343Z,120224.00
2019-05-29T13:05:06.946Z,126784.00
2019-05-29T13:05:51.993Z,130304.00
2019-05-29T13:06:56.228Z,55360.00
2019-05-29T13:07:50.526Z,122336.00